createdAt,value
2018-05-16T00:00:12.555Z,96240.61
2018-05-16T00:02:38.468Z,96242.46
2018-05-16T00:05:04.368Z,96230.13
2018-05-16T00:07:30.253Z,96233.33
2018-05-16T00:09:56.583Z,96223.31
2018-05-16T00:12:22.519Z,96230.70
2018-05-16T00:14:48.992Z,96233.73
2018-05-16T00:17:14.943Z,96236.05
2018-05-16T00:19:40.872Z,96235.45
2018-05-16T00:22:06.747Z,96240.01
2018-05-16T00:24:32.696Z,96238.97
2018-05-16T00:26:58.596Z,96244.52
2018-05-16T00:29:24.491Z,96239.15
2018-05-16T00:31:50.374Z,96228.23
2018-05-16T00:34:16.286Z,96231.22
2018-05-16T00:36:42.197Z,96232.18
2018-05-16T00:39:08.092Z,96229.48
2018-05-16T00:41:34.021Z,96229.24
2018-05-16T00:43:59.958Z,96225.47
2018-05-16T00:46:25.890Z,96220.78
2018-05-16T00:48:51.775Z,96216.62
2018-05-16T00:51:30.943Z,96222.20
2018-05-16T00:53:56.833Z,96211.96
2018-05-16T00:56:22.748Z,96224.62
2018-05-16T00:58:48.685Z,96220.70
2018-05-16T01:01:14.600Z,96225.78
2018-05-16T01:03:40.520Z,96218.88
2018-05-16T01:06:06.448Z,96219.30
2018-05-16T01:08:32.380Z,96217.43
2018-05-16T01:10:58.286Z,96214.23
2018-05-16T01:13:24.521Z,96218.03
2018-05-16T01:15:50.455Z,96221.53
2018-05-16T01:18:16.372Z,96217.75
2018-05-16T01:20:42.273Z,96210.31
2018-05-16T01:23:08.201Z,96215.48
2018-05-16T01:25:34.152Z,96216.34
2018-05-16T01:28:00.054Z,96218.71
2018-05-16T01:30:25.945Z,96211.20
2018-05-16T01:32:51.860Z,96211.27
2018-05-16T01:35:18.924Z,96216.55
2018-05-16T01:37:44.820Z,96211.81
2018-05-16T01:40:13.637Z,96221.45
2018-05-16T01:42:39.541Z,96233.13
2018-05-16T01:45:05.486Z,96232.97
2018-05-16T01:47:31.385Z,96232.89
2018-05-16T01:49:57.286Z,96237.33
2018-05-16T01:52:25.557Z,96233.84
2018-05-16T01:54:51.414Z,96238.28
2018-05-16T01:57:20.344Z,96237.97
2018-05-16T01:59:46.210Z,96235.47
2018-05-16T02:02:15.593Z,96231.65
2018-05-16T02:04:41.489Z,96235.77
2018-05-16T02:07:10.631Z,96232.63
2018-05-16T02:09:36.519Z,96233.52
2018-05-16T02:12:04.172Z,96232.98
2018-05-16T02:14:30.069Z,96226.86
2018-05-16T02:16:58.839Z,96225.17
2018-05-16T02:19:24.767Z,96216.16
2018-05-16T02:21:50.652Z,96214.86
2018-05-16T02:24:16.555Z,96214.41
2018-05-16T02:26:42.476Z,96209.80
2018-05-16T02:29:10.892Z,96218.42
2018-05-16T02:31:36.781Z,96220.52
2018-05-16T02:34:06.186Z,96220.52
2018-05-16T02:36:32.096Z,96219.58
2018-05-16T02:38:59.929Z,96209.46
2018-05-16T02:41:25.799Z,96204.92
2018-05-16T02:43:54.674Z,96198.28
2018-05-16T02:46:20.589Z,96187.63
2018-05-16T02:48:49.275Z,96174.33
2018-05-16T02:51:15.182Z,96179.72
2018-05-16T02:53:43.868Z,96180.69
2018-05-16T02:56:09.784Z,96181.83
2018-05-16T02:58:37.863Z,96177.39
2018-05-16T03:01:03.809Z,96181.41
2018-05-16T03:03:29.727Z,96178.52
2018-05-16T03:05:56.613Z,96188.92
2018-05-16T03:08:22.529Z,96184.69
2018-05-16T03:10:51.796Z,96182.75
2018-05-16T03:13:17.674Z,96183.08
2018-05-16T03:15:45.494Z,96186.91
2018-05-16T03:18:11.419Z,96183.47
2018-05-16T03:20:40.860Z,96187.00
2018-05-16T03:23:06.751Z,96199.67
2018-05-16T03:25:36.603Z,96195.27
2018-05-16T03:28:02.512Z,96190.31
2018-05-16T03:30:29.787Z,96201.97
2018-05-16T03:32:55.700Z,96196.52
2018-05-16T03:35:21.789Z,96199.30
2018-05-16T03:37:47.700Z,96198.31
2018-05-16T03:40:13.624Z,96202.91
2018-05-16T03:42:41.488Z,96203.77
2018-05-16T03:45:07.418Z,96195.75
2018-05-16T03:47:36.392Z,96190.48
2018-05-16T03:50:02.350Z,96195.56
2018-05-16T03:52:30.963Z,96196.22
2018-05-16T03:54:56.842Z,96199.83
2018-05-16T03:57:38.341Z,96194.98
2018-05-16T04:00:16.796Z,96193.75
2018-05-16T04:02:55.292Z,96196.33
2018-05-16T04:05:21.195Z,96195.75
2018-05-16T04:07:47.117Z,96205.26
2018-05-16T04:10:12.991Z,96205.03
2018-05-16T04:12:38.893Z,96207.45
2018-05-16T04:15:04.748Z,96200.03
2018-05-16T04:17:30.647Z,96201.53
2018-05-16T04:19:56.535Z,96212.07
2018-05-16T04:22:22.455Z,96206.91
2018-05-16T04:24:48.338Z,96205.23
2018-05-16T04:27:14.383Z,96193.75
2018-05-16T04:29:40.294Z,96193.00
2018-05-16T04:32:06.155Z,96194.16
2018-05-16T04:34:32.052Z,96194.67
2018-05-16T04:36:57.947Z,96192.86
2018-05-16T04:39:23.884Z,96191.98
2018-05-16T04:41:49.887Z,96197.86
2018-05-16T04:44:15.712Z,96195.91
2018-05-16T04:46:41.656Z,96198.37
2018-05-16T04:49:07.548Z,96198.48
2018-05-16T04:51:33.452Z,96195.09
2018-05-16T04:53:59.363Z,96199.64
2018-05-16T04:56:25.323Z,96194.20
2018-05-16T04:58:51.255Z,96194.50
2018-05-16T05:01:17.219Z,96193.77
2018-05-16T05:03:43.081Z,96195.92
2018-05-16T05:06:08.988Z,96202.50
2018-05-16T05:08:34.904Z,96200.16
2018-05-16T05:11:00.791Z,96203.17
2018-05-16T05:13:26.686Z,96200.59
2018-05-16T05:15:52.585Z,96201.33
2018-05-16T05:18:18.561Z,96194.78
2018-05-16T05:20:46.203Z,96194.25
2018-05-16T05:23:12.083Z,96188.54
2018-05-16T05:25:37.944Z,96194.52
2018-05-16T05:28:04.372Z,96190.74
2018-05-16T05:30:30.336Z,96186.17
2018-05-16T05:32:57.993Z,96189.32
2018-05-16T05:35:23.946Z,96186.91
2018-05-16T05:37:53.354Z,96182.27
2018-05-16T05:40:19.317Z,96177.34
2018-05-16T05:42:48.385Z,96180.23
2018-05-16T05:45:14.341Z,96183.20
2018-05-16T05:47:41.558Z,96185.27
2018-05-16T05:50:07.478Z,96176.39
2018-05-16T05:52:36.459Z,96145.98
2018-05-16T05:55:02.351Z,96175.87
2018-05-16T05:57:31.282Z,96174.45
2018-05-16T05:59:57.213Z,96173.25
2018-05-16T06:02:23.104Z,96176.52
2018-05-16T06:04:49.023Z,96169.41
2018-05-16T06:07:14.908Z,96169.16
2018-05-16T06:09:42.705Z,96169.67
2018-05-16T06:12:08.582Z,96170.77
2018-05-16T06:14:37.731Z,96175.20
2018-05-16T06:17:03.642Z,96179.36
2018-05-16T06:19:32.798Z,96177.45
2018-05-16T06:21:58.646Z,96180.82
2018-05-16T06:24:27.932Z,96174.73
2018-05-16T06:26:53.823Z,96175.50
2018-05-16T06:29:23.285Z,96176.03
2018-05-16T06:31:49.216Z,96178.45
2018-05-16T06:34:16.259Z,96171.96
2018-05-16T06:36:42.134Z,96174.73
2018-05-16T06:39:08.114Z,96167.45
2018-05-16T06:41:34.068Z,96175.95
2018-05-16T06:43:59.963Z,96167.22
2018-05-16T06:46:29.639Z,96172.38
2018-05-16T06:48:55.714Z,96173.14
2018-05-16T06:51:22.843Z,96172.70
2018-05-16T06:53:48.761Z,96176.42
2018-05-16T06:56:18.282Z,96181.14
2018-05-16T06:58:44.183Z,96175.31
2018-05-16T07:01:12.092Z,96181.34
2018-05-16T07:03:37.980Z,96179.09
2018-05-16T07:06:07.636Z,96186.34
2018-05-16T07:08:33.537Z,96185.67
2018-05-16T07:11:02.543Z,96188.73
2018-05-16T07:13:28.528Z,96198.08
2018-05-16T07:15:54.370Z,96196.67
2018-05-16T07:18:20.272Z,96199.15
2018-05-16T07:20:46.167Z,96200.50
2018-05-16T07:23:13.007Z,96203.84
2018-05-16T07:25:38.877Z,96197.34
2018-05-16T07:28:07.882Z,96196.67
2018-05-16T07:30:33.804Z,96202.68
2018-05-16T07:33:02.719Z,96197.45
2018-05-16T07:35:28.634Z,96200.47
2018-05-16T07:37:58.452Z,96200.41
2018-05-16T07:40:24.347Z,96199.97
2018-05-16T07:42:53.443Z,96203.83
2018-05-16T07:45:19.343Z,96205.07
2018-05-16T07:47:46.852Z,96211.13
2018-05-16T07:50:12.773Z,96205.84
2018-05-16T07:52:38.685Z,96208.61
2018-05-16T07:55:04.603Z,96220.22
2018-05-16T07:57:30.491Z,96218.63
2018-05-16T07:59:58.694Z,96220.23
2018-05-16T08:02:24.619Z,96220.87
2018-05-16T08:04:54.126Z,96227.45
2018-05-16T08:07:19.994Z,96227.61
2018-05-16T08:09:49.479Z,96229.78
2018-05-16T08:12:15.440Z,96229.83
2018-05-16T08:14:44.143Z,96231.91
2018-05-16T08:17:10.111Z,96234.71
2018-05-16T08:19:39.338Z,96229.05
2018-05-16T08:22:05.269Z,96234.87
2018-05-16T08:24:32.324Z,96233.75
2018-05-16T08:26:58.249Z,96233.52
2018-05-16T08:29:24.145Z,96240.34
2018-05-16T08:31:50.029Z,96238.99
2018-05-16T08:34:15.955Z,96242.85
2018-05-16T08:36:45.020Z,96240.66
2018-05-16T08:39:10.879Z,96241.73
2018-05-16T08:41:38.749Z,96244.66
2018-05-16T08:44:04.636Z,96244.04
2018-05-16T08:46:33.472Z,96241.77
2018-05-16T08:48:59.335Z,96251.08
2018-05-16T08:51:29.005Z,96256.51
2018-05-16T08:53:54.924Z,96255.39
2018-05-16T08:56:22.787Z,96252.42
2018-05-16T08:58:48.633Z,96258.30
2018-05-16T09:01:21.428Z,96265.48
2018-05-16T09:03:47.321Z,96261.60
2018-05-16T09:06:13.213Z,96262.26
2018-05-16T09:08:39.091Z,96261.98
2018-05-16T09:11:05.029Z,96268.92
2018-05-16T09:13:30.924Z,96266.42
2018-05-16T09:15:56.839Z,96271.77
2018-05-16T09:18:24.619Z,96266.63
2018-05-16T09:20:50.508Z,96265.78
2018-05-16T09:23:19.569Z,96267.15
2018-05-16T09:25:45.473Z,96266.41
2018-05-16T09:28:13.651Z,96272.38
2018-05-16T09:30:39.567Z,96271.30
2018-05-16T09:33:08.711Z,96277.37
2018-05-16T09:35:34.657Z,96275.70
2018-05-16T09:38:03.888Z,96269.05
2018-05-16T09:40:29.787Z,96279.53
2018-05-16T09:42:55.714Z,96280.99
2018-05-16T09:45:21.591Z,96278.98
2018-05-16T09:47:47.475Z,96285.28
2018-05-16T09:50:14.711Z,96280.39
2018-05-16T09:52:40.620Z,96286.53
2018-05-16T09:55:09.549Z,96287.31
2018-05-16T09:57:35.451Z,96285.78
2018-05-16T10:00:04.949Z,96289.01
2018-05-16T10:02:30.845Z,96289.77
2018-05-16T10:04:59.024Z,96291.17
2018-05-16T10:07:24.932Z,96295.99
2018-05-16T10:09:54.257Z,96294.88
2018-05-16T10:12:20.107Z,96303.63
2018-05-16T10:14:50.912Z,96298.27
2018-05-16T10:17:16.836Z,96300.58
2018-05-16T10:19:42.710Z,96307.03
2018-05-16T10:22:08.593Z,96308.91
2018-05-16T10:24:34.510Z,96309.06
2018-05-16T10:27:00.460Z,96304.09
2018-05-16T10:29:26.327Z,96302.06
2018-05-16T10:31:55.393Z,96306.13
2018-05-16T10:34:21.341Z,96312.07
2018-05-16T10:36:50.356Z,96307.03
2018-05-16T10:39:16.242Z,96316.91
2018-05-16T10:41:44.191Z,96321.91
2018-05-16T10:44:10.087Z,96319.68
2018-05-16T10:46:39.235Z,96315.73
2018-05-16T10:49:05.161Z,96319.88
2018-05-16T10:51:35.040Z,96318.73
2018-05-16T10:54:08.250Z,96321.34
2018-05-16T10:56:34.145Z,96325.06
2018-05-16T10:59:00.013Z,96325.98
2018-05-16T11:01:25.940Z,96324.84
2018-05-16T11:03:52.231Z,96328.67
2018-05-16T11:06:18.163Z,96327.97
2018-05-16T11:08:44.036Z,96324.00
2018-05-16T11:11:09.923Z,96314.42
2018-05-16T11:13:35.855Z,96326.52
2018-05-16T11:16:01.750Z,96328.48
2018-05-16T11:18:29.298Z,96323.99
2018-05-16T11:20:55.216Z,96333.50
2018-05-16T11:23:24.184Z,96329.23
2018-05-16T11:39:08.519Z,96343.17
2018-05-16T11:41:34.387Z,96337.37
2018-05-16T11:44:00.291Z,96336.27
2018-05-16T11:46:26.212Z,96327.06
2018-05-16T11:48:52.194Z,96329.03
2018-05-16T11:51:18.023Z,96322.50
2018-05-16T11:53:43.930Z,96319.80
2018-05-16T11:56:09.806Z,96318.93
2018-05-16T11:58:48.967Z,96318.88
2018-05-16T12:01:14.865Z,96320.67
2018-05-16T12:03:44.487Z,96319.13
2018-05-16T12:06:10.384Z,96321.13
2018-05-16T12:08:37.651Z,96322.78
2018-05-16T12:11:03.509Z,96324.60
2018-05-16T12:13:32.673Z,96324.77
2018-05-16T12:15:58.563Z,96322.86
2018-05-16T12:18:28.157Z,96326.61
2018-05-16T12:20:54.106Z,96311.13
2018-05-16T12:23:23.398Z,96317.34
2018-05-16T12:25:49.319Z,96319.33
2018-05-16T12:28:16.491Z,96323.86
2018-05-16T12:30:42.414Z,96322.85
2018-05-16T12:33:11.586Z,96331.14
2018-05-16T12:35:37.478Z,96330.31
2018-05-16T12:38:06.865Z,96335.30
2018-05-16T12:40:32.748Z,96341.73
2018-05-16T12:45:52.046Z,96340.70
2018-05-16T12:48:17.984Z,96337.34
2018-05-16T12:50:43.901Z,96340.84
2018-05-16T12:53:09.774Z,96332.73
2018-05-16T12:55:35.782Z,96334.31
2018-05-16T12:58:01.580Z,96337.44
2018-05-16T13:00:27.489Z,96343.39
2018-05-16T13:02:53.369Z,96336.36
2018-05-16T13:05:19.287Z,96340.75
2018-05-16T13:07:45.167Z,96334.65
2018-05-16T13:10:11.072Z,96333.52
2018-05-16T13:12:37.020Z,96334.14
2018-05-16T13:15:02.958Z,96326.56
2018-05-16T13:17:28.877Z,96329.94
2018-05-16T13:19:54.963Z,96331.77
2018-05-16T13:22:20.874Z,96327.89
2018-05-16T13:24:46.781Z,96326.41
2018-05-16T13:27:12.810Z,96325.58
2018-05-16T13:29:38.976Z,96321.73
2018-05-16T13:32:04.890Z,96331.01
2018-05-16T13:34:30.804Z,96326.20
2018-05-16T13:36:56.697Z,96318.34
2018-05-16T13:39:22.608Z,96327.48
2018-05-16T13:41:48.507Z,96322.17
2018-05-16T13:44:14.391Z,96325.88
2018-05-16T13:46:41.835Z,96327.45
2018-05-16T13:49:07.766Z,96319.86
2018-05-16T13:51:37.044Z,96316.74
2018-05-16T13:54:02.967Z,96318.95
2018-05-16T13:56:32.667Z,96300.55
2018-05-16T13:58:58.606Z,96308.16
2018-05-16T14:01:25.988Z,96308.38
2018-05-16T14:03:51.863Z,96317.52
2018-05-16T14:06:20.645Z,96316.19
2018-05-16T14:08:46.577Z,96322.70
2018-05-16T14:11:15.427Z,96325.97
2018-05-16T14:13:41.319Z,96324.57
2018-05-16T14:16:07.243Z,96328.20
2018-05-16T14:18:33.166Z,96326.23
2018-05-16T14:20:59.024Z,96323.44
2018-05-16T14:23:28.215Z,96319.93
2018-05-16T14:25:54.118Z,96319.56
2018-05-16T14:28:21.895Z,96322.57
2018-05-16T14:30:47.813Z,96321.03
2018-05-16T14:33:17.120Z,96319.98
2018-05-16T14:35:43.019Z,96322.43
2018-05-16T14:38:12.412Z,96335.15
2018-05-16T14:40:38.337Z,96332.06
2018-05-16T14:43:07.607Z,96337.55
2018-05-16T14:45:33.507Z,96335.98
2018-05-16T14:48:00.779Z,96336.41
2018-05-16T14:50:26.679Z,96337.48
2018-05-16T14:52:52.563Z,96331.59
2018-05-16T14:55:18.467Z,96341.60
2018-05-16T14:57:44.399Z,96345.69
2018-05-16T15:00:14.120Z,96345.74
2018-05-16T15:02:40.036Z,96348.64
2018-05-16T15:05:07.612Z,96355.16
2018-05-16T15:07:33.580Z,96367.40
2018-05-16T15:10:02.988Z,96372.46
2018-05-16T15:12:28.915Z,96375.20
2018-05-16T15:14:58.282Z,96384.34
2018-05-16T15:17:24.223Z,96377.75
2018-05-16T15:19:51.831Z,96389.70
2018-05-16T15:22:17.727Z,96392.45
2018-05-16T15:24:47.211Z,96400.34
2018-05-16T15:27:13.128Z,96385.07
2018-05-16T15:29:39.020Z,96395.54
2018-05-16T15:32:04.947Z,96400.78
2018-05-16T15:34:30.866Z,96394.21
2018-05-16T15:36:58.339Z,96382.54
2018-05-16T15:39:24.268Z,96392.44
2018-05-16T15:41:52.608Z,96388.20
2018-05-16T15:44:18.553Z,96384.91
2018-05-16T15:46:47.308Z,96382.39
2018-05-16T15:49:13.211Z,96385.53
2018-05-16T15:51:42.821Z,96381.50
2018-05-16T15:54:08.733Z,96384.44
2018-05-16T15:56:36.661Z,96381.65
2018-05-16T15:59:02.563Z,96386.16
2018-05-16T16:01:32.306Z,96383.65
2018-05-16T16:03:58.242Z,96378.95
2018-05-16T16:06:24.128Z,96376.25
2018-05-16T16:08:50.069Z,96376.72
2018-05-16T16:11:16.017Z,96381.31
2018-05-16T16:13:43.838Z,96383.38
2018-05-16T16:16:09.768Z,96381.45
2018-05-16T16:18:39.562Z,96384.81
2018-05-16T16:21:05.478Z,96385.95
2018-05-16T16:23:33.925Z,96376.38
2018-05-16T16:25:59.827Z,96376.25
2018-05-16T16:28:27.268Z,96379.38
2018-05-16T16:30:53.179Z,96368.98
2018-05-16T16:33:23.034Z,96364.77
2018-05-16T16:35:48.963Z,96363.18
2018-05-16T16:38:16.803Z,96363.73
2018-05-16T16:40:42.705Z,96359.34
2018-05-16T16:43:08.643Z,96360.48
2018-05-16T16:45:34.564Z,96362.33
2018-05-16T16:48:00.483Z,96358.23
2018-05-16T16:52:54.060Z,96352.53
2018-05-16T16:55:22.955Z,96352.31
2018-05-16T16:57:48.871Z,96359.09
2018-05-16T17:00:17.829Z,96359.17
2018-05-16T17:02:43.746Z,96361.86
2018-05-16T17:05:13.436Z,96359.73
2018-05-16T17:07:41.200Z,96361.05
2018-05-16T17:10:09.025Z,96362.97
2018-05-16T17:12:34.928Z,96363.66
2018-05-16T17:15:02.684Z,96361.31
2018-05-16T17:17:28.588Z,96370.86
2018-05-16T17:19:54.499Z,96362.34
2018-05-16T17:22:23.858Z,96357.11
2018-05-16T17:24:50.012Z,96359.14
2018-05-16T17:27:17.791Z,96357.20
2018-05-16T17:29:44.036Z,96362.77
2018-05-16T17:32:09.999Z,96352.73
2018-05-16T17:34:35.921Z,96356.48
2018-05-16T17:37:03.378Z,96362.23
2018-05-16T17:39:29.340Z,96357.11
2018-05-16T17:41:58.113Z,96360.16
2018-05-16T17:44:24.040Z,96356.07
2018-05-16T17:46:53.307Z,96357.37
2018-05-16T17:49:20.339Z,96355.41
2018-05-16T17:51:47.811Z,96359.85
2018-05-16T17:54:13.757Z,96367.20
2018-05-16T17:56:39.715Z,96364.76
2018-05-16T17:59:05.640Z,96367.64
2018-05-16T18:01:31.529Z,96370.80
2018-05-16T18:04:01.600Z,96373.59
2018-05-16T18:06:27.576Z,96386.62
2018-05-16T18:08:54.163Z,96381.89
2018-05-16T18:11:26.822Z,96379.99
2018-05-16T18:14:05.428Z,96376.21
2018-05-16T18:16:43.763Z,96381.41
2018-05-16T18:19:09.707Z,96389.39
2018-05-16T18:21:35.590Z,96386.92
2018-05-16T18:24:01.495Z,96392.17
2018-05-16T18:26:27.602Z,96391.19
2018-05-16T18:28:53.539Z,96396.55
2018-05-16T18:31:19.467Z,96391.89
2018-05-16T18:33:45.407Z,96399.12
2018-05-16T18:36:11.295Z,96405.14
2018-05-16T18:38:37.237Z,96408.01
2018-05-16T18:41:03.143Z,96409.97
2018-05-16T18:43:29.032Z,96406.30
2018-05-16T18:45:55.175Z,96409.24
2018-05-16T18:48:21.142Z,96409.44
2018-05-16T18:50:47.015Z,96414.20
2018-05-16T18:53:12.928Z,96420.89
2018-05-16T18:55:38.878Z,96422.52
2018-05-16T18:58:04.783Z,96430.98
2018-05-16T19:00:30.691Z,96431.19
2018-05-16T19:02:56.622Z,96432.88
2018-05-16T19:05:22.599Z,96436.27
2018-05-16T19:07:48.486Z,96429.16
2018-05-16T19:10:14.417Z,96431.55
2018-05-16T19:12:40.315Z,96441.34
2018-05-16T19:15:06.222Z,96444.94
2018-05-16T19:17:32.113Z,96452.92
2018-05-16T19:19:58.077Z,96451.92
2018-05-16T19:22:24.915Z,96448.25
2018-05-16T19:24:50.861Z,96458.94
2018-05-16T19:27:19.415Z,96456.28
2018-05-16T19:29:45.276Z,96454.42
2018-05-16T19:32:13.768Z,96459.25
2018-05-16T19:34:39.707Z,96464.73
2018-05-16T19:37:09.304Z,96469.48
2018-05-16T19:39:35.223Z,96474.34
2018-05-16T19:42:04.880Z,96481.25
2018-05-16T19:44:30.778Z,96478.55
2018-05-16T19:46:56.696Z,96482.41
2018-05-16T19:49:22.683Z,96490.50
2018-05-16T19:51:48.679Z,96486.67
2018-05-16T19:54:15.599Z,96488.26
2018-05-16T19:56:41.511Z,96484.52
2018-05-16T19:59:11.278Z,96485.22
2018-05-16T20:01:37.189Z,96486.14
2018-05-16T20:04:04.636Z,96485.68
2018-05-16T20:06:30.809Z,96493.59
2018-05-16T20:09:00.106Z,96493.47
2018-05-16T20:11:25.976Z,96497.52
2018-05-16T20:13:53.778Z,96499.50
2018-05-16T20:16:19.838Z,96497.80
2018-05-16T20:18:48.905Z,96502.66
2018-05-16T20:21:14.830Z,96497.41
2018-05-16T20:23:40.748Z,96486.89
2018-05-16T20:26:06.650Z,96493.11
2018-05-16T20:28:32.554Z,96496.05
2018-05-16T20:31:01.877Z,96495.50
2018-05-16T20:33:27.771Z,96500.61
2018-05-16T20:35:55.444Z,96494.09
2018-05-16T20:38:21.329Z,96488.16
2018-05-16T20:40:50.635Z,96494.42
2018-05-16T20:43:16.554Z,96497.52
2018-05-16T20:45:44.281Z,96502.31
2018-05-16T20:48:10.178Z,96503.34
2018-05-16T20:50:38.767Z,96501.80
2018-05-16T20:53:04.620Z,96499.30
2018-05-16T20:55:33.518Z,96510.81
2018-05-16T20:57:59.552Z,96504.52
2018-05-16T21:00:25.447Z,96501.09
2018-05-16T21:02:51.395Z,96497.02
2018-05-16T21:05:17.324Z,96489.27
2018-05-16T21:07:47.028Z,96488.27
2018-05-16T21:10:12.922Z,96498.15
2018-05-16T21:12:40.715Z,96509.81
2018-05-16T21:15:06.924Z,96513.85
2018-05-16T21:17:35.251Z,96525.77
2018-05-16T21:20:01.191Z,96530.41
2018-05-16T21:22:30.588Z,96529.34
2018-05-16T21:24:56.498Z,96528.91
2018-05-16T21:27:26.237Z,96522.36
2018-05-16T21:29:52.170Z,96526.91
2018-05-16T21:32:19.139Z,96529.65
2018-05-16T21:34:45.023Z,96529.11
2018-05-16T21:37:10.969Z,96534.54
2018-05-16T21:39:36.883Z,96521.70
2018-05-16T21:42:02.861Z,96524.73
2018-05-16T21:44:32.573Z,96527.30
2018-05-16T21:46:58.465Z,96524.98
2018-05-16T21:49:26.207Z,96524.89
2018-05-16T21:51:52.079Z,96531.42
2018-05-16T21:54:20.243Z,96530.64
2018-05-16T21:56:46.261Z,96526.41
2018-05-16T21:59:15.019Z,96523.26
2018-05-16T22:01:40.934Z,96519.99
2018-05-16T22:04:09.915Z,96520.05
2018-05-16T22:06:35.842Z,96520.66
2018-05-16T22:09:05.401Z,96518.03
2018-05-16T22:11:31.295Z,96528.09
2018-05-16T22:13:57.191Z,96518.50
2018-05-16T22:16:23.103Z,96519.27
2018-05-16T22:18:49.016Z,96514.80
2018-05-16T22:21:16.558Z,96519.88
2018-05-16T22:23:42.438Z,96521.24
2018-05-16T22:26:10.835Z,96521.95
2018-05-16T22:28:36.761Z,96515.23
2018-05-16T22:31:11.826Z,96516.06
2018-05-16T22:33:43.941Z,96513.16
2018-05-16T22:36:16.135Z,96518.02
2018-05-16T22:38:48.087Z,96519.90
2018-05-16T22:41:20.234Z,96511.63
2018-05-16T22:44:00.052Z,96511.55
2018-05-16T22:46:25.971Z,96508.37
2018-05-16T22:48:51.891Z,96502.05
2018-05-16T22:51:17.829Z,96490.55
2018-05-16T22:53:43.734Z,96501.93
2018-05-16T22:56:09.643Z,96498.85
2018-05-16T22:58:35.631Z,96496.70
2018-05-16T23:01:01.520Z,96500.34
2018-05-16T23:03:27.427Z,96502.41
2018-05-16T23:05:53.330Z,96504.72
2018-05-16T23:08:19.245Z,96490.31
2018-05-16T23:10:45.172Z,96485.85
2018-05-16T23:13:11.078Z,96482.06
2018-05-16T23:15:36.964Z,96481.71
2018-05-16T23:18:02.874Z,96484.83
2018-05-16T23:20:43.715Z,96483.02
2018-05-16T23:23:09.586Z,96481.20
2018-05-16T23:25:35.533Z,96446.62
2018-05-16T23:28:01.433Z,96484.44
2018-05-16T23:30:27.327Z,96478.98
2018-05-16T23:32:53.226Z,96472.80
2018-05-16T23:35:19.100Z,96474.04
2018-05-16T23:37:45.021Z,96470.78
2018-05-16T23:40:10.948Z,96477.98
2018-05-16T23:42:36.832Z,96474.38
2018-05-16T23:45:02.731Z,96475.33
2018-05-16T23:47:28.627Z,96473.47
2018-05-16T23:49:54.509Z,96469.48
2018-05-16T23:52:20.443Z,96472.34
2018-05-16T23:54:47.306Z,96475.91
2018-05-16T23:57:13.181Z,96471.14
2018-05-16T23:59:39.107Z,96479.55
